Time;durP1;ratioP1;P1;durP2;ratioP2;P2;SDS_P1;SDS_P2;PMS_P1;PMS_P2;Temp;Humidity;BMP_temperature;BMP_pressure;BME280_temperature;BME280_humidity;BME280_pressure;Samples;Min_cycle;Max_cycle;Signal;HPM_P1;HPM_P2
2021/03/23 00:00:20;;;;;;;;;26.33;22.00;;;;;;;;5003573;28;11588;-83
2021/03/23 00:02:50;;;;;;;;;24.00;19.33;;;;;;;;5003646;28;12528;-82
2021/03/23 00:05:18;;;;;;;;;29.33;22.00;;;;;;;;5004735;28;9695;-84
2021/03/23 00:07:46;;;;;;;;;25.67;25.33;;;;;;;;5009535;28;8878;-81
2021/03/23 00:10:14;;;;;;;;;21.33;20.67;;;;;;;;5006452;28;8890;-84
2021/03/23 00:12:41;;;;;;;;;25.33;25.00;;;;;;;;5004093;28;11614;-85
2021/03/23 00:15:10;;;;;;;;;23.67;23.00;;;;;;;;5005439;28;11611;-82
2021/03/23 00:17:39;;;;;;;;;31.33;28.67;;;;;;;;5005316;28;9460;-84
2021/03/23 00:20:10;;;;;;;;;24.33;20.67;;;;;;;;5005687;28;9013;-83
2021/03/23 00:22:38;;;;;;;;;22.33;20.33;;;;;;;;5006893;28;11820;-86
2021/03/23 00:25:06;;;;;;;;;21.33;21.33;;;;;;;;5003673;28;8851;-85
2021/03/23 00:27:33;;;;;;;;;22.00;22.00;;;;;;;;5008240;28;8878;-85
2021/03/23 00:30:00;;;;;;;;;25.33;22.33;;;;;;;;5004811;28;8882;-83
2021/03/23 00:32:28;;;;;;;;;29.00;22.00;;;;;;;;5006087;28;8847;-84
2021/03/23 00:34:55;;;;;;;;;27.00;25.67;;;;;;;;5005201;28;8886;-84
2021/03/23 00:37:23;;;;;;;;;19.67;19.67;;;;;;;;5005687;28;8902;-80
2021/03/23 00:39:50;;;;;;;;;21.33;18.67;;;;;;;;5003995;28;8863;-84
2021/03/23 00:42:17;;;;;;;;;24.00;20.00;;;;;;;;5002928;28;8959;-80
2021/03/23 00:44:45;;;;;;;;;29.67;21.00;;;;;;;;5004696;28;8904;-82
2021/03/23 00:47:12;;;;;;;;;25.00;19.67;;;;;;;;5004261;28;8867;-83
2021/03/23 00:49:39;;;;;;;;;19.33;18.00;;;;;;;;5005222;28;8855;-82
2021/03/23 00:52:07;;;;;;;;;17.33;17.33;;;;;;;;5004854;28;8867;-82
2021/03/23 00:54:35;;;;;;;;;25.67;25.67;;;;;;;;5005136;28;11622;-83
2021/03/23 00:57:02;;;;;;;;;14.67;13.00;;;;;;;;5003352;28;11709;-84
2021/03/23 00:59:29;;;;;;;;;28.67;23.00;;;;;;;;5004864;28;11612;-85
2021/03/23 01:01:56;;;;;;;;;16.33;13.67;;;;;;;;5003692;28;11570;-85
2021/03/23 01:04:23;;;;;;;;;24.33;20.00;;;;;;;;5004166;28;11606;-85
2021/03/23 01:06:50;;;;;;;;;29.67;26.00;;;;;;;;5005861;28;11590;-86
2021/03/23 01:09:17;;;;;;;;;20.50;17.50;;;;;;;;5003967;28;11599;-85
2021/03/23 01:11:44;;;;;;;;;26.00;23.33;;;;;;;;5004509;28;11600;-85
2021/03/23 01:14:11;;;;;;;;;23.67;20.67;;;;;;;;5001723;28;11659;-86
2021/03/23 01:16:38;;;;;;;;;32.25;29.00;;;;;;;;5003829;28;11756;-86
2021/03/23 01:19:05;;;;;;;;;32.33;25.33;;;;;;;;5004777;28;11696;-84
2021/03/23 01:21:32;;;;;;;;;36.25;30.25;;;;;;;;5006023;28;11639;-87
2021/03/23 01:23:59;;;;;;;;;24.67;17.67;;;;;;;;5004176;28;11715;-88
2021/03/23 01:26:26;;;;;;;;;31.00;26.50;;;;;;;;5006077;28;12437;-85
2021/03/23 01:28:54;;;;;;;;;44.25;37.25;;;;;;;;5004311;28;11797;-88
2021/03/23 01:31:21;;;;;;;;;38.50;33.75;;;;;;;;5003007;28;11755;-89
2021/03/23 01:33:48;;;;;;;;;34.00;29.67;;;;;;;;5006199;28;11661;-88
2021/03/23 01:36:15;;;;;;;;;30.00;26.00;;;;;;;;5003676;28;11617;-90
2021/03/23 01:38:42;;;;;;;;;32.00;31.00;;;;;;;;5003345;28;11699;-91
2021/03/23 01:41:09;;;;;;;;;21.67;21.67;;;;;;;;5004056;28;11628;-86
2021/03/23 01:43:37;;;;;;;;;39.67;36.67;;;;;;;;5002432;28;11619;-86
2021/03/23 01:46:40;;;;;;;;;37.00;34.00;;;;;;;;5004782;28;11646;-85
2021/03/23 01:49:11;;;;;;;;;42.00;33.67;;;;;;;;5003513;28;11677;-86
2021/03/23 01:51:38;;;;;;;;;36.33;32.33;;;;;;;;5003726;28;11727;-83
2021/03/23 01:54:11;;;;;;;;;50.00;41.33;;;;;;;;5003663;28;11689;-86
2021/03/23 01:56:38;;;;;;;;;42.00;41.00;;;;;;;;5002755;28;9458;-85
2021/03/23 01:59:05;;;;;;;;;30.00;26.00;;;;;;;;5004833;28;8900;-85
2021/03/23 02:01:33;;;;;;;;;41.33;40.67;;;;;;;;5001086;28;8812;-88
2021/03/23 02:04:01;;;;;;;;;45.00;39.67;;;;;;;;5004245;28;11796;-87
2021/03/23 02:06:39;;;;;;;;;42.67;41.67;;;;;;;;5003996;28;8924;-84
2021/03/23 02:09:10;;;;;;;;;46.33;39.00;;;;;;;;5005232;28;10855;-85
2021/03/23 02:11:42;;;;;;;;;42.00;39.67;;;;;;;;5004357;28;8871;-87
2021/03/23 02:14:11;;;;;;;;;43.33;40.33;;;;;;;;4989478;28;8874;-87
2021/03/23 02:16:39;;;;;;;;;58.67;50.00;;;;;;;;4998043;28;8893;-87
2021/03/23 02:19:07;;;;;;;;;54.33;45.33;;;;;;;;5002647;28;8866;-86
2021/03/23 02:21:35;;;;;;;;;57.67;49.33;;;;;;;;5007146;28;8866;-87
2021/03/23 02:24:02;;;;;;;;;60.33;50.33;;;;;;;;5001975;28;8851;-85
2021/03/23 02:26:31;;;;;;;;;60.00;50.00;;;;;;;;5005372;28;8909;-85
2021/03/23 02:29:00;;;;;;;;;62.33;49.33;;;;;;;;5001440;28;8869;-85
2021/03/23 02:31:29;;;;;;;;;58.33;49.00;;;;;;;;4995677;28;8918;-84
2021/03/23 02:33:57;;;;;;;;;52.00;44.00;;;;;;;;5002531;28;8948;-85
2021/03/23 02:36:25;;;;;;;;;43.33;40.67;;;;;;;;5002904;28;11716;-87
2021/03/23 02:38:53;;;;;;;;;58.67;47.33;;;;;;;;5006069;28;11715;-85
2021/03/23 02:41:20;;;;;;;;;46.00;44.67;;;;;;;;5003462;28;8863;-88
2021/03/23 02:43:47;;;;;;;;;54.00;43.00;;;;;;;;5000644;28;8867;-86
2021/03/23 02:46:15;;;;;;;;;49.00;41.67;;;;;;;;5002222;28;8858;-89
2021/03/23 02:48:42;;;;;;;;;45.67;43.00;;;;;;;;5004660;28;9008;-86
2021/03/23 02:51:13;;;;;;;;;40.33;40.33;;;;;;;;5008186;28;9633;-89
2021/03/23 02:53:40;;;;;;;;;46.00;42.67;;;;;;;;5005098;28;8999;-89
2021/03/23 02:56:08;;;;;;;;;43.33;36.67;;;;;;;;5004245;28;9744;-88
2021/03/23 02:58:35;;;;;;;;;47.00;42.00;;;;;;;;5005937;28;11860;-88
2021/03/23 03:01:02;;;;;;;;;44.00;41.33;;;;;;;;5002233;28;12194;-90
2021/03/23 03:03:30;;;;;;;;;47.67;43.00;;;;;;;;5005848;28;11687;-83
2021/03/23 03:05:57;;;;;;;;;41.00;39.00;;;;;;;;5006017;28;11644;-84
2021/03/23 03:08:24;;;;;;;;;45.00;42.67;;;;;;;;5000995;28;11737;-85
2021/03/23 03:10:52;;;;;;;;;42.33;36.33;;;;;;;;5004524;28;11619;-85
2021/03/23 03:13:22;;;;;;;;;41.33;37.00;;;;;;;;5007372;28;11736;-84
2021/03/23 03:15:49;;;;;;;;;48.33;39.67;;;;;;;;5005180;28;8893;-87
2021/03/23 03:18:17;;;;;;;;;44.67;43.00;;;;;;;;5006215;28;11724;-85
2021/03/23 03:20:44;;;;;;;;;39.00;36.00;;;;;;;;5006258;28;8878;-85
2021/03/23 03:23:11;;;;;;;;;41.67;39.33;;;;;;;;5006719;28;12206;-86
2021/03/23 03:25:38;;;;;;;;;36.33;36.33;;;;;;;;5006490;28;11783;-83
2021/03/23 03:28:07;;;;;;;;;43.33;36.00;;;;;;;;5005468;28;12678;-86
2021/03/23 03:30:39;;;;;;;;;46.33;35.33;;;;;;;;5005850;28;12493;-86
2021/03/23 03:33:07;;;;;;;;;45.67;41.67;;;;;;;;5006890;28;11750;-85
2021/03/23 03:35:36;;;;;;;;;47.00;41.00;;;;;;;;5005451;28;11645;-82
2021/03/23 03:38:04;;;;;;;;;52.67;45.33;;;;;;;;5006250;28;11665;-88
2021/03/23 03:40:34;;;;;;;;;38.67;35.67;;;;;;;;5006702;28;8866;-87
2021/03/23 03:43:01;;;;;;;;;31.00;28.67;;;;;;;;5010337;28;11695;-88
2021/03/23 03:45:29;;;;;;;;;50.33;40.33;;;;;;;;5005065;28;11806;-86
2021/03/23 03:47:58;;;;;;;;;45.67;42.00;;;;;;;;5006820;28;11779;-86
2021/03/23 03:50:26;;;;;;;;;44.33;37.00;;;;;;;;5005208;28;11759;-86
2021/03/23 03:52:56;;;;;;;;;37.67;37.67;;;;;;;;5005799;28;11627;-86
2021/03/23 03:55:24;;;;;;;;;45.00;35.00;;;;;;;;5002289;28;11673;-86
2021/03/23 03:57:51;;;;;;;;;40.00;34.67;;;;;;;;5006143;28;11618;-88
2021/03/23 04:00:21;;;;;;;;;48.33;36.00;;;;;;;;5004246;28;11613;-87
2021/03/23 04:02:48;;;;;;;;;51.00;43.00;;;;;;;;5000457;28;12491;-87
2021/03/23 04:05:21;;;;;;;;;40.33;37.67;;;;;;;;5004800;28;11729;-79
2021/03/23 04:07:48;;;;;;;;;44.00;43.00;;;;;;;;5003954;28;11654;-85
2021/03/23 04:10:15;;;;;;;;;44.67;39.33;;;;;;;;5005382;28;11717;-82
2021/03/23 04:12:42;;;;;;;;;42.25;39.50;;;;;;;;5005635;28;11651;-85
2021/03/23 04:15:10;;;;;;;;;39.67;39.67;;;;;;;;5005422;28;11629;-85
2021/03/23 04:17:37;;;;;;;;;47.67;41.00;;;;;;;;5006178;28;11612;-88
2021/03/23 04:20:06;;;;;;;;;43.00;37.67;;;;;;;;5003339;28;11654;-87
2021/03/23 04:22:34;;;;;;;;;56.33;45.67;;;;;;;;5002486;28;11624;-89
2021/03/23 04:25:01;;;;;;;;;38.75;34.25;;;;;;;;5003299;28;11682;-84
2021/03/23 04:27:28;;;;;;;;;42.25;40.00;;;;;;;;5005957;28;11617;-84
2021/03/23 04:29:55;;;;;;;;;46.00;38.00;;;;;;;;5000624;28;11650;-85
2021/03/23 04:32:22;;;;;;;;;46.75;40.50;;;;;;;;5007278;28;11592;-84
2021/03/23 04:34:49;;;;;;;;;44.75;39.25;;;;;;;;5005247;28;11644;-87
2021/03/23 04:37:16;;;;;;;;;37.75;36.25;;;;;;;;5004156;28;11623;-86
2021/03/23 04:39:44;;;;;;;;;44.67;41.33;;;;;;;;5004174;28;11614;-84
2021/03/23 04:42:11;;;;;;;;;48.75;45.25;;;;;;;;5003490;28;11638;-87
2021/03/23 04:44:38;;;;;;;;;39.00;34.75;;;;;;;;5004168;28;11785;-86
2021/03/23 04:47:06;;;;;;;;;38.25;33.75;;;;;;;;4999587;28;11775;-84
2021/03/23 04:49:33;;;;;;;;;40.67;39.00;;;;;;;;5004932;28;12396;-90
2021/03/23 04:52:00;;;;;;;;;41.67;41.00;;;;;;;;5003171;28;12455;-90
2021/03/23 04:54:27;;;;;;;;;35.75;35.75;;;;;;;;5004992;28;11762;-89
2021/03/23 04:56:55;;;;;;;;;37.75;32.50;;;;;;;;5003744;28;11773;-90
2021/03/23 04:59:22;;;;;;;;;31.25;30.75;;;;;;;;5004568;28;11695;-88
2021/03/23 05:01:49;;;;;;;;;40.00;35.00;;;;;;;;5004314;28;12474;-85
2021/03/23 05:04:18;;;;;;;;;45.00;40.50;;;;;;;;5003530;28;11618;-87
2021/03/23 05:06:45;;;;;;;;;38.67;35.00;;;;;;;;5005324;28;11620;-89
2021/03/23 05:09:13;;;;;;;;;34.67;33.00;;;;;;;;5004647;28;11633;-84
2021/03/23 05:11:40;;;;;;;;;37.67;34.33;;;;;;;;5003876;28;11651;-88
2021/03/23 05:14:09;;;;;;;;;39.33;36.33;;;;;;;;5005900;28;11620;-82
2021/03/23 05:16:36;;;;;;;;;41.67;40.33;;;;;;;;5008564;28;12307;-90
2021/03/23 05:19:04;;;;;;;;;39.33;37.00;;;;;;;;5005143;28;11627;-91
2021/03/23 05:21:31;;;;;;;;;38.00;36.00;;;;;;;;5011241;28;9006;-83
2021/03/23 05:24:00;;;;;;;;;38.00;38.00;;;;;;;;5006035;28;11617;-86
2021/03/23 05:26:28;;;;;;;;;46.33;41.00;;;;;;;;5004406;28;8894;-87
2021/03/23 05:28:55;;;;;;;;;42.00;34.00;;;;;;;;5004444;28;8965;-83
2021/03/23 05:31:23;;;;;;;;;32.33;31.67;;;;;;;;5003205;28;8962;-84
2021/03/23 05:33:50;;;;;;;;;41.67;34.33;;;;;;;;5002425;28;8924;-78
2021/03/23 05:36:18;;;;;;;;;42.33;37.00;;;;;;;;5004241;28;8878;-84
2021/03/23 05:38:45;;;;;;;;;46.00;40.00;;;;;;;;5003750;28;9780;-82
2021/03/23 05:41:19;;;;;;;;;37.67;34.00;;;;;;;;5005785;28;8854;-81
2021/03/23 05:43:59;;;;;;;;;31.33;30.67;;;;;;;;5001176;28;8870;-83
2021/03/23 05:46:32;;;;;;;;;41.67;38.67;;;;;;;;5004034;28;8863;-85
2021/03/23 05:49:13;;;;;;;;;33.67;30.67;;;;;;;;5004808;28;8866;-86
2021/03/23 05:51:42;;;;;;;;;31.67;27.67;;;;;;;;5001434;28;9645;-82
2021/03/23 05:54:18;;;;;;;;;25.00;21.00;;;;;;;;5004452;28;8878;-85
2021/03/23 05:56:48;;;;;;;;;30.33;26.67;;;;;;;;5002249;28;8843;-83
2021/03/23 05:59:31;;;;;;;;;32.00;27.33;;;;;;;;5003845;28;8888;-83
2021/03/23 06:02:04;;;;;;;;;37.00;28.00;;;;;;;;5003335;28;8901;-84
2021/03/23 06:04:43;;;;;;;;;34.33;31.00;;;;;;;;5003697;28;9011;-83
2021/03/23 06:07:14;;;;;;;;;33.67;30.67;;;;;;;;5004085;28;8889;-84
2021/03/23 06:09:42;;;;;;;;;29.00;29.00;;;;;;;;4989149;28;8873;-84
2021/03/23 06:12:22;;;;;;;;;30.33;28.33;;;;;;;;5003499;28;8887;-82
2021/03/23 06:14:57;;;;;;;;;33.67;26.67;;;;;;;;5000854;28;8897;-86
2021/03/23 06:17:37;;;;;;;;;35.67;30.67;;;;;;;;5003343;28;8858;-90
2021/03/23 06:20:24;;;;;;;;;26.00;26.00;;;;;;;;5001616;28;8882;-84
2021/03/23 06:23:14;;;;;;;;;35.33;34.67;;;;;;;;5001483;28;8878;-88
2021/03/23 06:25:45;;;;;;;;;28.00;27.00;;;;;;;;5003351;28;8985;-84
2021/03/23 06:28:33;;;;;;;;;45.67;42.00;;;;;;;;5006981;28;8886;-89
2021/03/23 06:31:02;;;;;;;;;45.67;40.33;;;;;;;;5003475;28;8924;-76
2021/03/23 06:33:31;;;;;;;;;37.00;34.67;;;;;;;;5005340;28;8870;-74
2021/03/23 06:36:01;;;;;;;;;35.33;31.67;;;;;;;;5003599;28;8890;-73
2021/03/23 06:38:30;;;;;;;;;50.33;45.00;;;;;;;;5004667;28;8871;-74
2021/03/23 06:41:14;;;;;;;;;40.67;38.33;;;;;;;;5003663;28;8887;-75
2021/03/23 06:43:42;;;;;;;;;52.33;43.00;;;;;;;;5002630;28;8901;-71
2021/03/23 06:46:21;;;;;;;;;44.67;39.67;;;;;;;;5003357;28;8874;-71
2021/03/23 06:49:04;;;;;;;;;43.00;38.33;;;;;;;;5003287;28;8885;-72
2021/03/23 06:51:31;;;;;;;;;50.33;40.33;;;;;;;;4998650;28;8871;-71
2021/03/23 06:54:14;;;;;;;;;49.33;42.67;;;;;;;;5002405;28;8884;-71
2021/03/23 06:56:40;;;;;;;;;51.33;46.00;;;;;;;;5002398;28;8875;-72
2021/03/23 06:59:13;;;;;;;;;55.33;48.00;;;;;;;;5005343;28;8866;-70
2021/03/23 07:01:42;;;;;;;;;49.33;38.33;;;;;;;;5003503;28;8827;-71
2021/03/23 07:04:30;;;;;;;;;42.33;36.33;;;;;;;;5006191;28;9037;-72
2021/03/23 07:07:12;;;;;;;;;66.67;48.33;;;;;;;;5005353;28;8898;-72
2021/03/23 07:09:47;;;;;;;;;64.33;50.33;;;;;;;;5002176;28;9092;-72
2021/03/23 07:12:14;;;;;;;;;49.67;44.00;;;;;;;;5003984;28;8870;-72
2021/03/23 07:14:43;;;;;;;;;56.33;48.33;;;;;;;;5003227;28;8877;-72
2021/03/23 07:17:31;;;;;;;;;59.33;48.00;;;;;;;;5003524;28;8858;-71
2021/03/23 07:20:08;;;;;;;;;64.67;52.67;;;;;;;;5010337;28;8978;-71
2021/03/23 07:22:43;;;;;;;;;70.33;57.00;;;;;;;;5005107;28;8889;-71
2021/03/23 07:25:30;;;;;;;;;60.33;50.67;;;;;;;;5006395;28;9032;-71
2021/03/23 07:28:22;;;;;;;;;65.00;48.67;;;;;;;;5002196;28;8875;-73
2021/03/23 07:30:52;;;;;;;;;46.33;42.67;;;;;;;;5002795;28;8949;-72
2021/03/23 07:33:25;;;;;;;;;46.33;34.67;;;;;;;;5014358;28;8882;-72
2021/03/23 07:35:53;;;;;;;;;55.33;47.67;;;;;;;;5003212;28;11663;-72
2021/03/23 07:38:35;;;;;;;;;51.33;46.00;;;;;;;;5008135;28;11630;-71
2021/03/23 07:41:03;;;;;;;;;57.67;49.00;;;;;;;;5003198;28;11676;-72
2021/03/23 07:43:44;;;;;;;;;53.00;44.33;;;;;;;;5004811;28;12483;-73
2021/03/23 07:46:15;;;;;;;;;52.67;43.67;;;;;;;;5004122;28;12426;-72
2021/03/23 07:48:49;;;;;;;;;69.67;57.33;;;;;;;;5004949;28;8863;-73
2021/03/23 07:51:22;;;;;;;;;72.00;58.67;;;;;;;;5004948;28;8890;-72
2021/03/23 07:53:49;;;;;;;;;57.00;45.00;;;;;;;;5003904;28;8878;-71
2021/03/23 07:56:29;;;;;;;;;37.67;36.00;;;;;;;;5004334;28;11704;-72
2021/03/23 07:59:05;;;;;;;;;56.67;50.33;;;;;;;;5000632;28;12404;-72
2021/03/23 08:01:42;;;;;;;;;70.67;60.67;;;;;;;;5003000;28;11589;-72
2021/03/23 08:04:12;;;;;;;;;68.67;55.67;;;;;;;;5002425;28;8862;-71
2021/03/23 08:07:07;;;;;;;;;71.67;58.67;;;;;;;;4998649;28;11765;-71
2021/03/23 08:10:03;;;;;;;;;63.33;54.00;;;;;;;;5006836;28;8892;-71
2021/03/23 08:12:53;;;;;;;;;66.67;53.33;;;;;;;;5003999;28;8847;-71
2021/03/23 08:15:32;;;;;;;;;61.75;49.50;;;;;;;;4974235;28;11680;-70
2021/03/23 08:18:30;;;;;;;;;54.25;42.00;;;;;;;;5004723;28;11641;-70
2021/03/23 08:21:13;;;;;;;;;55.00;45.50;;;;;;;;5003996;28;11631;-70
2021/03/23 08:23:49;;;;;;;;;60.50;49.50;;;;;;;;5002503;28;11705;-70
2021/03/23 08:26:24;;;;;;;;;51.75;44.50;;;;;;;;5003843;28;11613;-71
2021/03/23 08:29:00;;;;;;;;;52.75;45.50;;;;;;;;5002728;28;11615;-69
2021/03/23 08:31:35;;;;;;;;;59.50;47.75;;;;;;;;5003855;28;11597;-70
2021/03/23 08:34:29;;;;;;;;;54.50;45.75;;;;;;;;4967852;28;11682;-69
2021/03/23 08:37:11;;;;;;;;;61.00;44.75;;;;;;;;4963322;28;11776;-70
2021/03/23 08:39:49;;;;;;;;;53.25;45.75;;;;;;;;4964028;28;11769;-71
2021/03/23 08:42:18;;;;;;;;;57.75;46.75;;;;;;;;4964203;28;11629;-70
2021/03/23 08:44:51;;;;;;;;;60.25;50.50;;;;;;;;4961776;28;11711;-72
2021/03/23 08:47:26;;;;;;;;;60.25;45.75;;;;;;;;4970561;28;11816;-71
2021/03/23 08:49:53;;;;;;;;;59.75;47.75;;;;;;;;4963475;28;11757;-72
2021/03/23 08:52:37;;;;;;;;;46.50;43.25;;;;;;;;4963352;28;11759;-71
2021/03/23 08:55:07;;;;;;;;;39.75;36.00;;;;;;;;4964440;28;11687;-71
2021/03/23 08:57:48;;;;;;;;;27.25;27.25;;;;;;;;4962036;28;11661;-72
2021/03/23 09:00:41;;;;;;;;;29.25;29.25;;;;;;;;4961068;28;11592;-71
2021/03/23 09:03:52;;;;;;;;;30.00;24.25;;;;;;;;4959368;28;11597;-72
2021/03/23 09:06:21;;;;;;;;;33.25;31.50;;;;;;;;4965889;28;12404;-71
2021/03/23 09:08:53;;;;;;;;;37.50;33.50;;;;;;;;4965368;28;11639;-71
2021/03/23 09:11:59;;;;;;;;;30.00;25.75;;;;;;;;4964122;28;12487;-71
2021/03/23 09:14:27;;;;;;;;;35.75;27.50;;;;;;;;4953294;28;11592;-71
2021/03/23 09:17:15;;;;;;;;;32.75;29.00;;;;;;;;4969066;28;11620;-71
2021/03/23 09:19:57;;;;;;;;;29.00;26.50;;;;;;;;4966280;28;11587;-71
2021/03/23 09:22:36;;;;;;;;;28.25;25.50;;;;;;;;4966239;28;11838;-71
2021/03/23 09:25:43;;;;;;;;;32.25;30.25;;;;;;;;4956879;28;11588;-71
2021/03/23 09:28:11;;;;;;;;;30.00;27.00;;;;;;;;4964425;28;11639;-71
2021/03/23 09:30:57;;;;;;;;;28.00;27.00;;;;;;;;4964558;28;11388;-71
2021/03/23 09:33:39;;;;;;;;;28.00;26.75;;;;;;;;4994936;28;11297;-72
2021/03/23 09:36:50;;;;;;;;;27.50;24.25;;;;;;;;5003474;28;11291;-72
2021/03/23 09:39:47;;;;;;;;;33.25;29.75;;;;;;;;5003517;28;11081;-72
2021/03/23 09:42:45;;;;;;;;;32.50;26.75;;;;;;;;4969602;28;11141;-71
2021/03/23 09:45:28;;;;;;;;;27.50;25.25;;;;;;;;4999763;28;11031;-72
2021/03/23 09:48:35;;;;;;;;;28.25;25.75;;;;;;;;5002996;28;10846;-71
2021/03/23 09:51:05;;;;;;;;;20.25;20.00;;;;;;;;5002579;28;11034;-72
2021/03/23 09:53:37;;;;;;;;;20.50;19.25;;;;;;;;5002921;28;10951;-72
2021/03/23 09:56:09;;;;;;;;;29.50;24.50;;;;;;;;4999638;28;10747;-72
2021/03/23 09:58:38;;;;;;;;;26.25;19.50;;;;;;;;5000553;28;11459;-72
2021/03/23 10:01:26;;;;;;;;;27.50;25.00;;;;;;;;5003025;28;10546;-71
2021/03/23 10:03:56;;;;;;;;;23.50;19.75;;;;;;;;4994866;28;10724;-71
2021/03/23 10:06:25;;;;;;;;;24.50;20.00;;;;;;;;5003527;28;10594;-72
2021/03/23 10:08:57;;;;;;;;;30.25;26.25;;;;;;;;5006321;28;10620;-71
2021/03/23 10:11:25;;;;;;;;;30.25;27.75;;;;;;;;5008590;28;10654;-71
2021/03/23 10:13:57;;;;;;;;;21.50;19.75;;;;;;;;5001862;28;11439;-72
2021/03/23 10:16:29;;;;;;;;;25.50;23.25;;;;;;;;5005177;28;10617;-71
2021/03/23 10:19:02;;;;;;;;;25.50;25.25;;;;;;;;5004620;28;10633;-71
2021/03/23 10:21:32;;;;;;;;;34.50;29.00;;;;;;;;5003841;28;10731;-72
2021/03/23 10:24:02;;;;;;;;;19.75;17.75;;;;;;;;5002737;28;10737;-72
2021/03/23 10:26:37;;;;;;;;;13.00;10.75;;;;;;;;5001935;28;10587;-72
2021/03/23 10:29:16;;;;;;;;;25.50;25.50;;;;;;;;5002055;28;10600;-72
2021/03/23 10:31:46;;;;;;;;;29.25;28.25;;;;;;;;4999447;28;10717;-72
2021/03/23 10:34:18;;;;;;;;;27.50;27.00;;;;;;;;5002689;28;10641;-72
2021/03/23 10:36:49;;;;;;;;;26.25;26.25;;;;;;;;5003636;28;10541;-72
2021/03/23 10:39:31;;;;;;;;;27.50;26.50;;;;;;;;5002238;28;10432;-72
2021/03/23 10:41:58;;;;;;;;;25.25;23.00;;;;;;;;5000357;28;10415;-71
2021/03/23 10:44:28;;;;;;;;;24.75;24.75;;;;;;;;4999571;28;10628;-72
2021/03/23 10:46:57;;;;;;;;;20.50;18.75;;;;;;;;5002390;28;10386;-72
2021/03/23 10:49:29;;;;;;;;;22.25;20.50;;;;;;;;5013173;28;10306;-72
2021/03/23 10:51:58;;;;;;;;;20.75;20.75;;;;;;;;4992124;28;10396;-71
2021/03/23 10:54:28;;;;;;;;;25.50;23.75;;;;;;;;5002854;28;10408;-72
2021/03/23 10:56:57;;;;;;;;;26.75;21.00;;;;;;;;5002557;28;10398;-72
2021/03/23 10:59:33;;;;;;;;;24.75;24.50;;;;;;;;5001500;28;10493;-72
2021/03/23 11:02:21;;;;;;;;;36.50;28.25;;;;;;;;5002351;28;10188;-72
2021/03/23 11:05:13;;;;;;;;;29.00;25.75;;;;;;;;4996005;28;10331;-72
2021/03/23 11:07:54;;;;;;;;;17.75;15.75;;;;;;;;5000707;28;11198;-72
2021/03/23 11:10:24;;;;;;;;;29.75;24.50;;;;;;;;5005869;28;10114;-71
2021/03/23 11:12:51;;;;;;;;;27.75;21.75;;;;;;;;5004653;28;10273;-71
2021/03/23 11:15:18;;;;;;;;;25.75;22.75;;;;;;;;5006265;28;10956;-71
2021/03/23 11:17:46;;;;;;;;;27.75;25.50;;;;;;;;5005684;28;10160;-72
2021/03/23 11:20:23;;;;;;;;;30.75;29.75;;;;;;;;5005845;28;10140;-71
2021/03/23 11:22:56;;;;;;;;;29.00;26.00;;;;;;;;5005849;28;10157;-71
2021/03/23 11:25:25;;;;;;;;;29.00;29.00;;;;;;;;5005160;28;9904;-72
2021/03/23 11:27:53;;;;;;;;;28.75;28.75;;;;;;;;5006563;28;9837;-72
2021/03/23 11:30:20;;;;;;;;;31.25;28.50;;;;;;;;5003546;28;9819;-72
2021/03/23 11:32:49;;;;;;;;;30.25;26.50;;;;;;;;5009900;28;9687;-72
2021/03/23 11:35:18;;;;;;;;;37.00;32.25;;;;;;;;5005405;28;9576;-73
2021/03/23 11:37:45;;;;;;;;;23.50;22.25;;;;;;;;5006091;28;9663;-72
2021/03/23 11:40:14;;;;;;;;;32.25;26.25;;;;;;;;5007778;28;9835;-70
2021/03/23 11:42:43;;;;;;;;;32.25;27.75;;;;;;;;4999934;28;9826;-72
2021/03/23 11:45:19;;;;;;;;;36.25;30.25;;;;;;;;5004390;28;9806;-72
2021/03/23 11:47:54;;;;;;;;;30.50;30.25;;;;;;;;5002073;28;9816;-71
2021/03/23 11:50:25;;;;;;;;;30.00;26.00;;;;;;;;5005540;28;9675;-72
2021/03/23 11:52:53;;;;;;;;;28.75;22.75;;;;;;;;5003671;28;9496;-72
2021/03/23 11:55:24;;;;;;;;;30.75;30.75;;;;;;;;4998080;28;9464;-71
2021/03/23 11:57:53;;;;;;;;;33.00;29.00;;;;;;;;5003929;28;9491;-70
2021/03/23 12:00:22;;;;;;;;;34.75;32.50;;;;;;;;5003361;28;9420;-72
2021/03/23 12:02:50;;;;;;;;;39.75;33.50;;;;;;;;5003331;28;9446;-71
2021/03/23 12:05:17;;;;;;;;;32.67;32.67;;;;;;;;5003313;28;9568;-71
2021/03/23 12:08:02;;;;;;;;;22.00;22.00;;;;;;;;5005182;28;9451;-71
2021/03/23 12:10:34;;;;;;;;;33.33;28.00;;;;;;;;5003866;28;9197;-71
2021/03/23 12:13:09;;;;;;;;;34.33;30.00;;;;;;;;5001664;28;9145;-71
2021/03/23 12:15:39;;;;;;;;;33.67;27.33;;;;;;;;5004074;28;9276;-71
2021/03/23 12:18:14;;;;;;;;;33.33;29.67;;;;;;;;5000956;28;9217;-71
2021/03/23 12:20:42;;;;;;;;;34.67;31.33;;;;;;;;5003014;28;9125;-72
2021/03/23 12:23:11;;;;;;;;;29.00;27.33;;;;;;;;5002750;28;9240;-72
2021/03/23 12:25:38;;;;;;;;;31.00;27.33;;;;;;;;5004087;28;9139;-73
2021/03/23 12:28:05;;;;;;;;;31.33;28.00;;;;;;;;5003957;28;9040;-71
2021/03/23 12:30:32;;;;;;;;;28.50;28.25;;;;;;;;5000790;28;8976;-71
2021/03/23 12:32:58;;;;;;;;;29.50;27.25;;;;;;;;5004091;28;8887;-71
2021/03/23 12:35:27;;;;;;;;;29.00;28.25;;;;;;;;5003742;28;8866;-72
2021/03/23 12:37:57;;;;;;;;;28.25;25.75;;;;;;;;5003981;28;8882;-71
2021/03/23 12:40:26;;;;;;;;;32.25;27.50;;;;;;;;5003665;28;9052;-71
2021/03/23 12:42:55;;;;;;;;;26.75;26.25;;;;;;;;5002310;28;8903;-72
2021/03/23 12:45:25;;;;;;;;;33.50;29.00;;;;;;;;5003975;28;8885;-72
2021/03/23 12:47:52;;;;;;;;;30.00;26.75;;;;;;;;5003342;28;8890;-71
2021/03/23 12:50:20;;;;;;;;;28.75;28.75;;;;;;;;5004667;28;8953;-72
2021/03/23 12:52:47;;;;;;;;;33.25;31.50;;;;;;;;5002897;28;8867;-71
2021/03/23 12:55:20;;;;;;;;;32.25;31.00;;;;;;;;5004132;28;8886;-72
2021/03/23 12:57:51;;;;;;;;;30.75;30.75;;;;;;;;4995608;28;8878;-71
2021/03/23 13:00:25;;;;;;;;;32.25;31.75;;;;;;;;5002333;28;8916;-71
2021/03/23 13:02:53;;;;;;;;;30.00;24.25;;;;;;;;5003351;28;8963;-71
2021/03/23 13:05:20;;;;;;;;;36.00;31.25;;;;;;;;5002738;28;8955;-71
2021/03/23 13:07:47;;;;;;;;;39.00;32.75;;;;;;;;5004065;28;8851;-72
2021/03/23 13:10:26;;;;;;;;;39.67;35.67;;;;;;;;5002287;28;8981;-72
2021/03/23 13:12:55;;;;;;;;;38.67;33.67;;;;;;;;5002692;28;9279;-72
2021/03/23 13:15:22;;;;;;;;;37.00;33.67;;;;;;;;5003012;28;8978;-71
2021/03/23 13:17:49;;;;;;;;;30.50;29.25;;;;;;;;5003780;28;9109;-71
2021/03/23 13:20:17;;;;;;;;;38.00;35.00;;;;;;;;5002451;28;8859;-72
2021/03/23 13:22:49;;;;;;;;;33.00;29.50;;;;;;;;5002788;28;9037;-72
2021/03/23 13:25:30;;;;;;;;;38.75;34.00;;;;;;;;5004298;28;8890;-72
2021/03/23 13:27:58;;;;;;;;;49.00;34.75;;;;;;;;5002978;28;8886;-72
2021/03/23 13:30:31;;;;;;;;;38.25;32.00;;;;;;;;5002141;28;8921;-72
2021/03/23 13:33:00;;;;;;;;;36.50;30.75;;;;;;;;5003448;28;8854;-71
2021/03/23 13:35:29;;;;;;;;;33.25;29.00;;;;;;;;5003043;28;9037;-73
2021/03/23 13:37:56;;;;;;;;;22.50;22.50;;;;;;;;5003104;28;8940;-73
2021/03/23 13:40:27;;;;;;;;;36.00;32.75;;;;;;;;5003218;28;9759;-72
2021/03/23 13:42:55;;;;;;;;;34.00;32.75;;;;;;;;5002946;28;8977;-72
2021/03/23 13:45:27;;;;;;;;;42.67;36.00;;;;;;;;5002436;28;8881;-71
2021/03/23 13:47:54;;;;;;;;;30.75;28.50;;;;;;;;5001975;28;9021;-72
2021/03/23 13:50:23;;;;;;;;;36.50;32.75;;;;;;;;5001782;28;8870;-71
2021/03/23 13:52:53;;;;;;;;;30.75;29.00;;;;;;;;5010729;28;8898;-72
2021/03/23 13:55:23;;;;;;;;;22.25;16.25;;;;;;;;5001734;28;8871;-72
2021/03/23 13:57:50;;;;;;;;;39.25;35.75;;;;;;;;5010025;28;8889;-71
2021/03/23 14:00:20;;;;;;;;;33.75;29.25;;;;;;;;5007405;28;8867;-71
2021/03/23 14:02:47;;;;;;;;;29.25;29.25;;;;;;;;5002524;28;8896;-71
2021/03/23 14:05:15;;;;;;;;;30.75;29.00;;;;;;;;5003042;28;8867;-72
2021/03/23 14:07:44;;;;;;;;;26.00;24.00;;;;;;;;5001885;28;8896;-72
2021/03/23 14:10:15;;;;;;;;;28.00;26.75;;;;;;;;5000651;28;8874;-71
2021/03/23 14:12:42;;;;;;;;;26.25;24.50;;;;;;;;5003586;28;8874;-71
2021/03/23 14:15:15;;;;;;;;;41.00;35.50;;;;;;;;5002666;28;8989;-71
2021/03/23 14:17:42;;;;;;;;;36.00;33.00;;;;;;;;5004521;28;8901;-71
2021/03/23 14:20:13;;;;;;;;;27.50;27.50;;;;;;;;5000772;28;8870;-71
2021/03/23 14:22:40;;;;;;;;;30.50;28.50;;;;;;;;5003327;28;8879;-71
2021/03/23 14:25:24;;;;;;;;;31.25;29.25;;;;;;;;5008110;28;8862;-71
2021/03/23 14:27:50;;;;;;;;;32.50;29.00;;;;;;;;4995162;28;8867;-71
2021/03/23 14:30:19;;;;;;;;;25.25;24.75;;;;;;;;5002262;28;9874;-71
2021/03/23 14:32:46;;;;;;;;;28.50;26.75;;;;;;;;4999292;28;8884;-70
2021/03/23 14:35:16;;;;;;;;;27.00;26.75;;;;;;;;5002170;28;9769;-71
2021/03/23 14:37:44;;;;;;;;;33.50;28.25;;;;;;;;5002862;28;8954;-71
2021/03/23 14:40:16;;;;;;;;;24.00;21.00;;;;;;;;5003385;28;8876;-72
2021/03/23 14:42:43;;;;;;;;;33.00;32.00;;;;;;;;5001674;28;8873;-72
2021/03/23 14:45:13;;;;;;;;;29.00;29.00;;;;;;;;5003129;28;8862;-72
2021/03/23 14:47:40;;;;;;;;;36.25;31.50;;;;;;;;5005478;28;8873;-72
2021/03/23 14:50:10;;;;;;;;;31.00;29.50;;;;;;;;5003960;28;8862;-72